createdAt,value
2022-11-14T00:00:03.133Z,42.60
2022-11-14T00:02:49.909Z,46.97
2022-11-14T00:05:40.664Z,44.50
2022-11-14T00:08:27.508Z,40.27
2022-11-14T00:11:15.792Z,40.87
2022-11-14T00:14:02.369Z,41.67
2022-11-14T00:16:49.225Z,40.20
2022-11-14T00:19:35.729Z,44.03
2022-11-14T00:22:22.520Z,43.80
2022-11-14T00:25:10.835Z,41.27
2022-11-14T00:27:59.720Z,39.73
2022-11-14T00:30:48.327Z,37.80
2022-11-14T00:33:34.968Z,40.10
2022-11-14T00:36:21.636Z,36.40
2022-11-14T00:39:08.193Z,38.70
2022-11-14T00:41:55.082Z,39.43
2022-11-14T00:44:43.237Z,37.50
2022-11-14T00:47:29.637Z,38.87
2022-11-14T00:50:16.777Z,38.77
2022-11-14T00:53:03.567Z,37.30
2022-11-14T00:55:50.234Z,38.53
2022-11-14T00:58:36.825Z,34.13
2022-11-14T01:01:25.152Z,40.47
2022-11-14T01:04:11.806Z,41.00
2022-11-14T01:06:58.185Z,39.20
2022-11-14T01:09:44.934Z,39.07
2022-11-14T01:12:31.582Z,35.87
2022-11-14T01:15:17.969Z,40.03
2022-11-14T01:18:05.993Z,36.97
2022-11-14T01:20:52.620Z,42.27
2022-11-14T01:23:38.940Z,36.53
2022-11-14T01:26:25.658Z,36.90
2022-11-14T01:29:12.751Z,40.73
2022-11-14T01:31:59.056Z,39.47
2022-11-14T01:34:47.665Z,38.30
2022-11-14T01:37:34.191Z,38.80
2022-11-14T01:40:21.074Z,39.60
2022-11-14T01:43:24.544Z,39.63
2022-11-14T01:46:14.469Z,38.17
2022-11-14T01:49:03.277Z,37.67
2022-11-14T01:51:54.673Z,40.90
2022-11-14T01:54:44.757Z,42.40
2022-11-14T01:57:36.395Z,42.77
2022-11-14T02:00:22.688Z,40.80
2022-11-14T02:03:09.295Z,40.43
2022-11-14T02:05:56.669Z,40.27
2022-11-14T02:08:44.862Z,39.20
2022-11-14T02:11:33.125Z,41.33
2022-11-14T02:14:19.585Z,40.30
2022-11-14T02:20:20.203Z,37.43
2022-11-14T02:23:06.477Z,39.27
2022-11-14T02:25:53.025Z,41.93
2022-11-14T02:28:40.128Z,44.00
2022-11-14T02:31:26.972Z,45.07
2022-11-14T02:34:16.830Z,40.57
2022-11-14T02:37:04.693Z,43.23
2022-11-14T02:39:51.251Z,44.40
2022-11-14T02:42:38.038Z,43.60
2022-11-14T02:45:24.414Z,46.63
2022-11-14T02:48:10.837Z,43.17
2022-11-14T02:50:57.413Z,39.90
2022-11-14T02:53:45.325Z,45.90
2022-11-14T02:56:31.860Z,41.53
2022-11-14T02:59:18.221Z,45.50
2022-11-14T03:02:05.511Z,41.77
2022-11-14T03:04:52.008Z,44.50
2022-11-14T03:07:38.814Z,46.90
2022-11-14T03:10:27.682Z,40.33
2022-11-14T03:13:13.962Z,48.93
2022-11-14T03:16:07.092Z,42.63
2022-11-14T03:18:53.843Z,43.43
2022-11-14T03:21:40.453Z,41.50
2022-11-14T03:24:26.956Z,42.33
2022-11-14T03:27:15.106Z,48.13
2022-11-14T03:30:01.992Z,42.87
2022-11-14T03:32:48.509Z,46.60
2022-11-14T03:35:35.242Z,49.63
2022-11-14T03:38:23.140Z,48.37
2022-11-14T03:41:10.013Z,49.77
2022-11-14T03:43:57.760Z,52.20
2022-11-14T03:46:44.522Z,56.37
2022-11-14T03:49:31.033Z,47.60
2022-11-14T03:52:17.428Z,49.97
2022-11-14T03:55:04.839Z,47.23
2022-11-14T03:57:51.238Z,43.63
2022-11-14T04:00:39.943Z,49.80
2022-11-14T04:03:26.962Z,45.97
2022-11-14T04:06:13.858Z,47.40
2022-11-14T04:09:01.341Z,41.80
2022-11-14T04:11:47.676Z,50.00
2022-11-14T04:14:34.478Z,42.97
2022-11-14T04:17:22.456Z,42.80
2022-11-14T04:20:09.635Z,46.83
2022-11-14T04:22:56.165Z,42.40
2022-11-14T04:25:44.384Z,39.43
2022-11-14T04:28:31.345Z,46.63
2022-11-14T04:31:18.148Z,42.40
2022-11-14T04:34:06.167Z,43.47
2022-11-14T04:36:53.318Z,44.33
2022-11-14T04:39:39.782Z,47.27
2022-11-14T04:42:26.516Z,47.07
2022-11-14T04:45:13.070Z,49.53
2022-11-14T04:47:59.610Z,45.33
2022-11-14T04:50:47.971Z,48.37
2022-11-14T04:53:34.382Z,49.77
2022-11-14T04:56:23.338Z,45.77
2022-11-14T04:59:10.153Z,45.20
2022-11-14T05:01:59.300Z,49.23
2022-11-14T05:04:47.290Z,44.07
2022-11-14T05:07:35.343Z,52.03
2022-11-14T05:10:22.232Z,45.10
2022-11-14T05:13:08.650Z,43.03
2022-11-14T05:15:55.111Z,47.90
2022-11-14T05:18:46.904Z,51.33
2022-11-14T05:21:35.293Z,50.13
2022-11-14T05:24:23.098Z,49.40
2022-11-14T05:27:09.475Z,42.00
2022-11-14T05:29:56.473Z,49.17
2022-11-14T05:32:42.919Z,51.30
2022-11-14T05:35:29.587Z,49.93
2022-11-14T05:38:16.284Z,48.97
2022-11-14T05:41:08.348Z,49.97
2022-11-14T05:43:54.995Z,49.20
2022-11-14T05:46:41.531Z,46.67
2022-11-14T05:49:28.072Z,46.47
2022-11-14T05:52:14.832Z,47.83
2022-11-14T05:55:01.070Z,46.50
2022-11-14T05:57:49.055Z,52.23
2022-11-14T06:00:41.912Z,48.77
2022-11-14T06:03:34.826Z,52.23
2022-11-14T06:06:22.280Z,46.90
2022-11-14T06:09:08.921Z,49.90
2022-11-14T06:11:55.268Z,52.60
2022-11-14T06:14:43.014Z,52.93
2022-11-14T06:17:29.516Z,46.60
2022-11-14T06:20:16.189Z,49.60
2022-11-14T06:23:02.482Z,46.17
2022-11-14T06:25:49.312Z,52.57
2022-11-14T06:28:36.040Z,49.47
2022-11-14T06:31:24.348Z,43.93
2022-11-14T06:34:12.497Z,48.60
2022-11-14T06:36:59.031Z,48.87
2022-11-14T06:39:45.301Z,48.17
2022-11-14T06:42:32.103Z,46.03
2022-11-14T06:45:18.759Z,45.83
2022-11-14T06:48:07.002Z,51.30
2022-11-14T06:50:54.375Z,48.53
2022-11-14T06:53:42.158Z,46.73
2022-11-14T06:56:28.748Z,52.30
2022-11-14T06:59:15.540Z,49.23
2022-11-14T07:02:02.051Z,52.60
2022-11-14T07:04:49.815Z,49.83
2022-11-14T07:07:38.644Z,52.73
2022-11-14T07:10:25.035Z,53.23
2022-11-14T07:13:12.328Z,50.13
2022-11-14T07:15:58.625Z,51.40
2022-11-14T07:18:45.220Z,48.57
2022-11-14T07:21:34.930Z,51.77
2022-11-14T07:24:21.493Z,55.13
2022-11-14T07:27:09.345Z,47.70
2022-11-14T07:29:56.115Z,53.13
2022-11-14T07:32:42.662Z,49.23
2022-11-14T07:35:29.392Z,46.83
2022-11-14T07:38:17.274Z,47.53
2022-11-14T07:41:05.611Z,44.33
2022-11-14T07:43:52.089Z,50.63
2022-11-14T07:46:38.477Z,48.43
2022-11-14T07:49:25.134Z,55.33
2022-11-14T07:52:14.639Z,53.70
2022-11-14T07:55:02.624Z,53.53
2022-11-14T07:57:49.800Z,50.80
2022-11-14T08:00:36.614Z,49.33
2022-11-14T08:03:23.264Z,50.67
2022-11-14T08:06:11.680Z,45.63
2022-11-14T08:08:58.359Z,46.93
2022-11-14T08:11:49.227Z,48.73
2022-11-14T08:14:35.904Z,47.87
2022-11-14T08:17:25.433Z,48.13
2022-11-14T08:20:12.597Z,46.00
2022-11-14T08:23:03.631Z,53.50
2022-11-14T08:25:50.481Z,44.70
2022-11-14T08:28:40.335Z,45.40
2022-11-14T08:31:27.209Z,43.70
2022-11-14T08:34:13.639Z,39.97
2022-11-14T08:36:59.963Z,42.17
2022-11-14T08:39:46.557Z,47.43
2022-11-14T08:42:33.303Z,40.53
2022-11-14T08:45:21.163Z,41.67
2022-11-14T08:48:11.470Z,41.70
2022-11-14T08:50:57.985Z,37.77
2022-11-14T08:53:44.978Z,38.37
2022-11-14T08:56:31.410Z,37.73
2022-11-14T08:59:17.863Z,35.80
2022-11-14T09:02:05.963Z,39.73
2022-11-14T09:04:52.558Z,51.00
2022-11-14T09:07:39.339Z,42.40
2022-11-14T09:10:26.719Z,39.33
2022-11-14T09:13:13.045Z,41.20
2022-11-14T09:15:59.380Z,38.50
2022-11-14T09:18:47.242Z,34.30
2022-11-14T09:21:33.680Z,32.93
2022-11-14T09:24:20.320Z,38.07
2022-11-14T09:27:07.056Z,36.47
2022-11-14T09:29:54.083Z,34.37
2022-11-14T09:32:40.466Z,35.77
2022-11-14T09:35:28.426Z,29.73
2022-11-14T09:38:14.794Z,34.87
2022-11-14T09:41:07.568Z,31.70
2022-11-14T09:44:14.197Z,31.43
2022-11-14T09:47:06.812Z,35.80
2022-11-14T09:49:55.867Z,31.90
2022-11-14T09:52:47.523Z,32.40
2022-11-14T09:55:37.125Z,36.43
2022-11-14T09:58:24.698Z,31.90
2022-11-14T10:01:19.296Z,32.90
2022-11-14T10:04:16.235Z,29.33
2022-11-14T10:07:11.487Z,29.33
2022-11-14T10:10:06.424Z,30.60
2022-11-14T10:13:02.262Z,29.33
2022-11-14T10:15:54.020Z,30.20
2022-11-14T10:18:55.817Z,31.27
2022-11-14T10:21:58.125Z,35.90
2022-11-14T10:25:20.241Z,33.73
2022-11-14T10:28:22.613Z,31.60
2022-11-14T10:31:21.559Z,29.40
2022-11-14T10:34:13.889Z,27.00
2022-11-14T10:37:07.571Z,28.63
2022-11-14T10:39:56.559Z,33.30
2022-11-14T10:42:45.836Z,30.17
2022-11-14T10:45:39.043Z,29.70
2022-11-14T10:48:32.155Z,28.97
2022-11-14T10:51:22.301Z,30.50
2022-11-14T10:54:14.988Z,35.70
2022-11-14T10:57:01.597Z,27.73
2022-11-14T10:59:49.575Z,32.10
2022-11-14T11:02:49.735Z,30.87
2022-11-14T11:05:48.401Z,30.40
2022-11-14T11:08:56.430Z,30.47
2022-11-14T11:11:43.300Z,29.17
2022-11-14T11:14:30.645Z,33.10
2022-11-14T11:17:34.931Z,31.70
2022-11-14T11:20:33.586Z,31.97
2022-11-14T11:23:23.451Z,30.10
2022-11-14T11:26:21.911Z,28.07
2022-11-14T11:29:17.646Z,26.90
2022-11-14T11:32:11.054Z,29.53
2022-11-14T11:35:04.352Z,30.30
2022-11-14T11:37:55.700Z,31.37
2022-11-14T11:40:45.413Z,30.93
2022-11-14T11:43:53.902Z,30.57
2022-11-14T11:46:48.801Z,30.80
2022-11-14T11:49:48.614Z,26.00
2022-11-14T11:52:42.602Z,29.70
2022-11-14T11:55:33.376Z,26.30
2022-11-14T11:58:25.354Z,29.23
2022-11-14T12:01:14.975Z,32.03
2022-11-14T12:04:04.151Z,26.80
2022-11-14T12:06:57.312Z,35.73
2022-11-14T12:10:09.766Z,27.60
2022-11-14T12:13:39.869Z,24.60
2022-11-14T12:16:59.745Z,30.00
2022-11-14T12:20:07.434Z,27.53
2022-11-14T12:23:12.116Z,28.57
2022-11-14T12:26:19.881Z,31.00
2022-11-14T12:29:25.518Z,33.97
2022-11-14T12:32:16.979Z,29.73
2022-11-14T12:35:09.907Z,28.47
2022-11-14T12:37:58.576Z,33.93
2022-11-14T12:40:52.053Z,30.93
2022-11-14T12:43:44.166Z,33.90
2022-11-14T12:47:15.581Z,26.87
2022-11-14T12:50:42.338Z,31.73
2022-11-14T12:53:44.400Z,30.40
2022-11-14T12:57:00.907Z,31.57
2022-11-14T13:00:00.999Z,28.80
2022-11-14T13:03:22.315Z,31.67
2022-11-14T13:06:15.097Z,31.67
2022-11-14T13:09:37.232Z,36.50
2022-11-14T13:12:47.199Z,39.67
2022-11-14T13:16:09.268Z,34.00
2022-11-14T13:19:17.898Z,36.60
2022-11-14T13:22:38.259Z,36.07
2022-11-14T13:25:25.614Z,32.77
2022-11-14T13:28:48.129Z,39.80
2022-11-14T13:31:48.361Z,36.53
2022-11-14T13:34:40.466Z,33.40
2022-11-14T13:37:40.402Z,36.30
2022-11-14T13:40:29.986Z,35.77
2022-11-14T13:43:21.150Z,32.80
2022-11-14T13:46:13.697Z,34.23
2022-11-14T13:49:21.880Z,32.73
2022-11-14T13:52:08.963Z,34.27
2022-11-14T13:54:55.619Z,37.03
2022-11-14T13:57:48.689Z,39.00
2022-11-14T14:00:54.702Z,36.30
2022-11-14T14:03:59.893Z,38.23
2022-11-14T14:06:59.147Z,38.50
2022-11-14T14:09:52.099Z,44.73
2022-11-14T14:12:48.044Z,43.03
2022-11-14T14:15:39.076Z,46.37
2022-11-14T14:18:33.972Z,47.60
2022-11-14T14:21:30.666Z,47.30
2022-11-14T14:24:34.542Z,46.67
2022-11-14T14:27:26.185Z,52.43
2022-11-14T14:30:14.348Z,49.47
2022-11-14T14:33:11.206Z,55.40
2022-11-14T14:35:58.168Z,52.77
2022-11-14T14:38:45.059Z,52.43
2022-11-14T14:41:36.219Z,53.73
2022-11-14T14:44:28.494Z,53.93
2022-11-14T14:47:32.467Z,57.17
2022-11-14T14:50:20.851Z,58.87
2022-11-14T14:53:07.707Z,55.77
2022-11-14T14:55:56.499Z,55.97
2022-11-14T14:58:44.733Z,60.77
2022-11-14T15:01:34.174Z,62.47
2022-11-14T15:04:21.917Z,60.03
2022-11-14T15:07:20.101Z,61.60
2022-11-14T15:10:07.981Z,57.50
2022-11-14T15:12:54.652Z,59.13
2022-11-14T15:15:43.261Z,63.63
2022-11-14T15:18:32.141Z,73.10
2022-11-14T15:21:27.331Z,64.50
2022-11-14T15:24:17.090Z,63.53
2022-11-14T15:27:05.950Z,58.90
2022-11-14T15:29:54.536Z,61.17
2022-11-14T15:32:49.548Z,66.33
2022-11-14T15:35:36.798Z,64.67
2022-11-14T15:41:31.905Z,70.20
2022-11-14T15:44:31.432Z,69.10
2022-11-14T15:47:25.745Z,71.13
2022-11-14T15:50:29.466Z,67.70
2022-11-14T15:53:23.048Z,75.57
2022-11-14T15:56:12.332Z,70.37
2022-11-14T15:58:58.879Z,79.53
2022-11-14T16:01:47.461Z,68.67
2022-11-14T16:04:35.381Z,70.00
2022-11-14T16:07:23.601Z,73.00
2022-11-14T16:10:15.672Z,71.13
2022-11-14T16:13:02.871Z,66.17
2022-11-14T16:15:49.415Z,72.60
2022-11-14T16:18:36.080Z,70.00
2022-11-14T16:21:22.450Z,72.90
2022-11-14T16:24:15.839Z,76.73
2022-11-14T16:27:02.163Z,72.70
2022-11-14T16:29:49.411Z,70.90
2022-11-14T16:32:35.796Z,69.50
2022-11-14T16:35:24.029Z,72.77
2022-11-14T16:38:13.783Z,68.97
2022-11-14T16:41:01.801Z,72.13
2022-11-14T16:43:48.742Z,73.60
2022-11-14T16:46:35.502Z,69.37
2022-11-14T16:49:22.030Z,70.27
2022-11-14T16:52:10.907Z,70.93
2022-11-14T16:54:57.405Z,78.30
2022-11-14T16:57:45.127Z,72.97
2022-11-14T17:00:32.431Z,77.90
2022-11-14T17:03:19.247Z,72.53
2022-11-14T17:06:10.556Z,71.73
2022-11-14T17:08:57.408Z,73.37
2022-11-14T17:11:45.550Z,76.83
2022-11-14T17:14:33.859Z,72.07
2022-11-14T17:17:21.538Z,71.40
2022-11-14T17:20:10.903Z,69.20
2022-11-14T17:22:58.201Z,75.40
2022-11-14T17:25:45.406Z,69.27
2022-11-14T17:28:32.750Z,68.87
2022-11-14T17:31:21.332Z,73.77
2022-11-14T17:34:10.592Z,73.67
2022-11-14T17:36:58.866Z,68.43
2022-11-14T17:39:46.753Z,66.47
2022-11-14T17:42:33.499Z,67.00
2022-11-14T17:45:21.896Z,73.60
2022-11-14T17:48:17.360Z,67.07
2022-11-14T17:51:15.442Z,66.83
2022-11-14T17:54:07.004Z,70.20
2022-11-14T17:57:00.180Z,66.10
2022-11-14T17:59:52.486Z,66.20
2022-11-14T18:02:56.890Z,65.90
2022-11-14T18:05:53.468Z,69.43
2022-11-14T18:08:46.350Z,75.90
2022-11-14T18:11:39.130Z,68.20
2022-11-14T18:14:35.127Z,74.33
2022-11-14T18:17:26.176Z,71.43
2022-11-14T18:20:19.809Z,72.10
2022-11-14T18:23:14.711Z,71.07
2022-11-14T18:26:29.552Z,69.80
2022-11-14T18:29:18.783Z,69.37
2022-11-14T18:32:27.639Z,74.97
2022-11-14T18:35:32.006Z,73.00
2022-11-14T18:38:42.424Z,75.37
2022-11-14T18:41:42.862Z,72.87
2022-11-14T18:44:34.116Z,83.87
2022-11-14T18:47:33.528Z,72.87
2022-11-14T18:50:31.705Z,74.10
2022-11-14T18:53:31.119Z,70.10
2022-11-14T18:56:29.647Z,69.50
2022-11-14T18:59:29.175Z,71.60
2022-11-14T19:02:26.304Z,75.87
2022-11-14T19:05:26.388Z,78.27
2022-11-14T19:08:20.420Z,73.20
2022-11-14T19:11:34.092Z,74.20
2022-11-14T19:14:32.923Z,75.87
2022-11-14T19:17:24.453Z,76.80
2022-11-14T19:20:29.588Z,79.37
2022-11-14T19:23:28.060Z,83.27
2022-11-14T19:26:29.501Z,85.83
2022-11-14T19:29:20.655Z,91.00
2022-11-14T19:32:37.924Z,83.30
2022-11-14T19:35:31.808Z,87.60
2022-11-14T19:38:30.633Z,91.63
2022-11-14T19:41:45.663Z,84.77
2022-11-14T19:44:37.498Z,83.97
2022-11-14T19:47:41.225Z,82.47
2022-11-14T19:50:38.294Z,87.77
2022-11-14T19:53:33.854Z,84.13
2022-11-14T19:56:30.810Z,86.33
2022-11-14T19:59:24.363Z,85.27
2022-11-14T20:02:18.186Z,93.80
2022-11-14T20:05:13.053Z,88.57
2022-11-14T20:08:16.972Z,95.27
2022-11-14T20:11:13.925Z,94.50
2022-11-14T20:14:09.384Z,97.50
2022-11-14T20:17:13.519Z,96.37
2022-11-14T20:20:04.267Z,101.87
2022-11-14T20:23:14.654Z,100.80
2022-11-14T20:26:15.208Z,99.67
2022-11-14T20:29:19.506Z,107.57
2022-11-14T20:32:24.888Z,101.70
2022-11-14T20:35:27.017Z,101.10
2022-11-14T20:38:19.952Z,107.57
2022-11-14T20:41:19.983Z,110.87
2022-11-14T20:44:14.566Z,104.53
2022-11-14T20:47:10.940Z,102.57
2022-11-14T20:50:13.369Z,105.40
2022-11-14T20:53:03.068Z,106.60
2022-11-14T20:56:03.847Z,104.27
2022-11-14T20:58:53.061Z,105.53
2022-11-14T21:01:48.055Z,106.27
2022-11-14T21:04:46.582Z,98.90
2022-11-14T21:07:37.600Z,100.60
2022-11-14T21:10:53.093Z,90.63
2022-11-14T21:14:08.522Z,90.40
2022-11-14T21:17:04.763Z,93.57
2022-11-14T21:19:55.432Z,85.40
2022-11-14T21:22:45.728Z,83.10
2022-11-14T21:25:43.433Z,95.60
2022-11-14T21:28:40.701Z,85.77
2022-11-14T21:31:46.463Z,79.03
2022-11-14T21:34:43.499Z,72.87
2022-11-14T21:37:40.091Z,69.30
2022-11-14T21:40:43.804Z,75.67
2022-11-14T21:43:33.793Z,65.83
2022-11-14T21:46:24.947Z,78.17
2022-11-14T21:49:29.883Z,76.97
2022-11-14T21:52:19.816Z,74.97
2022-11-14T21:55:17.954Z,76.20
2022-11-14T21:58:11.003Z,72.03
2022-11-14T22:01:08.253Z,68.33
2022-11-14T22:04:14.899Z,74.93
2022-11-14T22:07:17.576Z,68.70
2022-11-14T22:10:14.787Z,73.60
2022-11-14T22:13:02.366Z,71.00
2022-11-14T22:15:50.824Z,84.97
2022-11-14T22:18:41.993Z,78.97
2022-11-14T22:21:28.751Z,67.43
2022-11-14T22:24:29.530Z,70.70
2022-11-14T22:27:23.210Z,78.80
2022-11-14T22:30:19.841Z,71.03
2022-11-14T22:33:16.099Z,72.03
2022-11-14T22:36:27.281Z,74.83
2022-11-14T22:39:18.393Z,77.00
2022-11-14T22:42:10.990Z,75.43
2022-11-14T22:45:02.792Z,72.50
2022-11-14T22:47:50.097Z,78.03
2022-11-14T22:50:52.315Z,77.97
2022-11-14T22:53:42.860Z,64.33
2022-11-14T22:56:36.664Z,74.77
2022-11-14T22:59:35.359Z,70.03
2022-11-14T23:02:26.264Z,69.20
2022-11-14T23:05:13.717Z,71.97
2022-11-14T23:08:04.493Z,71.87
2022-11-14T23:11:00.156Z,72.00
2022-11-14T23:13:55.024Z,71.23
2022-11-14T23:16:55.082Z,72.80
2022-11-14T23:19:54.793Z,79.20
2022-11-14T23:22:46.011Z,74.90
2022-11-14T23:25:45.168Z,77.43
2022-11-14T23:28:36.009Z,71.20
2022-11-14T23:31:25.960Z,78.13
2022-11-14T23:34:16.581Z,78.43
2022-11-14T23:37:07.860Z,76.07
2022-11-14T23:40:02.196Z,73.57
2022-11-14T23:42:51.955Z,79.80
2022-11-14T23:45:44.241Z,74.60
2022-11-14T23:48:33.673Z,70.80
2022-11-14T23:51:30.050Z,73.53
2022-11-14T23:54:21.166Z,69.43
2022-11-14T23:57:11.765Z,69.73
2022-11-14T23:59:59.412Z,70.23
